sensor_id;sensor_type;location;lat;lon;timestamp;P1;durP1;ratioP1;P2;durP2;ratioP2
26335;SDS011;14047;50.936;4.654;2023-05-07T00:01:57;12.93;;;7.55;;
26335;SDS011;14047;50.936;4.654;2023-05-07T00:04:22;13.88;;;7.75;;
26335;SDS011;14047;50.936;4.654;2023-05-07T00:06:48;13.85;;;7.38;;
26335;SDS011;14047;50.936;4.654;2023-05-07T00:09:15;11.15;;;7.03;;
26335;SDS011;14047;50.936;4.654;2023-05-07T00:11:41;11.43;;;7.20;;
26335;SDS011;14047;50.936;4.654;2023-05-07T00:14:07;14.07;;;7.72;;
26335;SDS011;14047;50.936;4.654;2023-05-07T00:16:33;14.23;;;7.80;;
26335;SDS011;14047;50.936;4.654;2023-05-07T00:19:00;14.23;;;7.85;;
26335;SDS011;14047;50.936;4.654;2023-05-07T00:21:26;16.88;;;8.18;;
26335;SDS011;14047;50.936;4.654;2023-05-07T00:23:52;12.57;;;7.43;;
26335;SDS011;14047;50.936;4.654;2023-05-07T00:26:18;11.88;;;7.30;;
26335;SDS011;14047;50.936;4.654;2023-05-07T00:28:47;12.15;;;7.97;;
26335;SDS011;14047;50.936;4.654;2023-05-07T00:31:13;10.95;;;7.95;;
26335;SDS011;14047;50.936;4.654;2023-05-07T00:33:39;14.05;;;8.93;;
26335;SDS011;14047;50.936;4.654;2023-05-07T00:36:05;14.38;;;8.68;;
26335;SDS011;14047;50.936;4.654;2023-05-07T00:38:31;14.90;;;8.07;;
26335;SDS011;14047;50.936;4.654;2023-05-07T00:40:57;15.55;;;8.25;;
26335;SDS011;14047;50.936;4.654;2023-05-07T00:43:23;13.23;;;8.13;;
26335;SDS011;14047;50.936;4.654;2023-05-07T00:45:49;16.52;;;7.32;;
26335;SDS011;14047;50.936;4.654;2023-05-07T00:48:15;14.48;;;7.35;;
26335;SDS011;14047;50.936;4.654;2023-05-07T00:50:41;12.90;;;8.05;;
26335;SDS011;14047;50.936;4.654;2023-05-07T00:53:08;15.70;;;7.68;;
26335;SDS011;14047;50.936;4.654;2023-05-07T00:55:34;16.58;;;8.50;;
26335;SDS011;14047;50.936;4.654;2023-05-07T00:58:01;12.77;;;7.35;;
26335;SDS011;14047;50.936;4.654;2023-05-07T01:00:27;15.75;;;7.68;;
26335;SDS011;14047;50.936;4.654;2023-05-07T01:02:55;14.90;;;7.95;;
26335;SDS011;14047;50.936;4.654;2023-05-07T01:05:20;10.38;;;7.30;;
26335;SDS011;14047;50.936;4.654;2023-05-07T01:07:50;17.52;;;7.80;;
26335;SDS011;14047;50.936;4.654;2023-05-07T01:10:17;13.02;;;8.02;;
26335;SDS011;14047;50.936;4.654;2023-05-07T01:12:43;14.07;;;7.95;;
26335;SDS011;14047;50.936;4.654;2023-05-07T01:15:12;10.25;;;7.25;;
26335;SDS011;14047;50.936;4.654;2023-05-07T01:17:40;11.30;;;7.53;;
26335;SDS011;14047;50.936;4.654;2023-05-07T01:20:13;12.32;;;7.35;;
26335;SDS011;14047;50.936;4.654;2023-05-07T01:22:39;12.82;;;6.93;;
26335;SDS011;14047;50.936;4.654;2023-05-07T01:25:07;13.55;;;8.15;;
26335;SDS011;14047;50.936;4.654;2023-05-07T01:27:35;15.48;;;6.95;;
26335;SDS011;14047;50.936;4.654;2023-05-07T01:30:03;10.23;;;6.57;;
26335;SDS011;14047;50.936;4.654;2023-05-07T01:32:43;11.10;;;6.93;;
26335;SDS011;14047;50.936;4.654;2023-05-07T01:35:11;16.23;;;7.97;;
26335;SDS011;14047;50.936;4.654;2023-05-07T01:37:41;10.90;;;6.95;;
26335;SDS011;14047;50.936;4.654;2023-05-07T01:40:07;15.02;;;7.45;;
26335;SDS011;14047;50.936;4.654;2023-05-07T01:42:34;10.02;;;7.70;;
26335;SDS011;14047;50.936;4.654;2023-05-07T01:45:01;15.13;;;7.68;;
26335;SDS011;14047;50.936;4.654;2023-05-07T01:47:28;11.77;;;7.22;;
26335;SDS011;14047;50.936;4.654;2023-05-07T01:49:55;11.02;;;8.13;;
26335;SDS011;14047;50.936;4.654;2023-05-07T01:52:27;13.38;;;7.68;;
26335;SDS011;14047;50.936;4.654;2023-05-07T01:54:54;14.05;;;7.53;;
26335;SDS011;14047;50.936;4.654;2023-05-07T01:57:19;10.23;;;7.05;;
26335;SDS011;14047;50.936;4.654;2023-05-07T01:59:46;12.18;;;8.68;;
26335;SDS011;14047;50.936;4.654;2023-05-07T02:02:13;15.35;;;7.43;;
26335;SDS011;14047;50.936;4.654;2023-05-07T02:04:41;9.82;;;7.22;;
26335;SDS011;14047;50.936;4.654;2023-05-07T02:07:07;10.13;;;7.90;;
26335;SDS011;14047;50.936;4.654;2023-05-07T02:09:33;14.52;;;9.32;;
26335;SDS011;14047;50.936;4.654;2023-05-07T02:11:59;14.18;;;9.30;;
26335;SDS011;14047;50.936;4.654;2023-05-07T02:14:25;14.77;;;8.65;;
26335;SDS011;14047;50.936;4.654;2023-05-07T02:16:51;13.70;;;9.38;;
26335;SDS011;14047;50.936;4.654;2023-05-07T02:19:17;14.32;;;9.40;;
26335;SDS011;14047;50.936;4.654;2023-05-07T02:21:46;16.23;;;10.80;;
26335;SDS011;14047;50.936;4.654;2023-05-07T02:24:13;13.20;;;10.38;;
26335;SDS011;14047;50.936;4.654;2023-05-07T02:26:40;18.17;;;11.55;;
26335;SDS011;14047;50.936;4.654;2023-05-07T02:29:06;19.35;;;12.30;;
26335;SDS011;14047;50.936;4.654;2023-05-07T02:31:32;15.25;;;11.48;;
26335;SDS011;14047;50.936;4.654;2023-05-07T02:34:01;18.02;;;12.57;;
26335;SDS011;14047;50.936;4.654;2023-05-07T02:36:27;15.13;;;12.00;;
26335;SDS011;14047;50.936;4.654;2023-05-07T02:39:01;17.50;;;11.70;;
26335;SDS011;14047;50.936;4.654;2023-05-07T02:41:28;15.45;;;11.43;;
26335;SDS011;14047;50.936;4.654;2023-05-07T02:44:00;18.85;;;10.18;;
26335;SDS011;14047;50.936;4.654;2023-05-07T02:46:27;14.52;;;10.45;;
26335;SDS011;14047;50.936;4.654;2023-05-07T02:48:59;13.02;;;9.73;;
26335;SDS011;14047;50.936;4.654;2023-05-07T02:51:25;13.50;;;10.57;;
26335;SDS011;14047;50.936;4.654;2023-05-07T02:53:54;14.15;;;10.63;;
26335;SDS011;14047;50.936;4.654;2023-05-07T02:56:21;15.05;;;11.25;;
26335;SDS011;14047;50.936;4.654;2023-05-07T02:58:47;13.77;;;11.02;;
26335;SDS011;14047;50.936;4.654;2023-05-07T03:01:14;19.10;;;11.60;;
26335;SDS011;14047;50.936;4.654;2023-05-07T03:03:48;14.52;;;10.75;;
26335;SDS011;14047;50.936;4.654;2023-05-07T03:06:14;17.83;;;11.25;;
26335;SDS011;14047;50.936;4.654;2023-05-07T03:08:40;16.30;;;10.13;;
26335;SDS011;14047;50.936;4.654;2023-05-07T03:11:06;16.60;;;10.90;;
26335;SDS011;14047;50.936;4.654;2023-05-07T03:13:33;14.82;;;11.52;;
26335;SDS011;14047;50.936;4.654;2023-05-07T03:15:59;17.08;;;12.25;;
26335;SDS011;14047;50.936;4.654;2023-05-07T03:18:25;15.60;;;11.70;;
26335;SDS011;14047;50.936;4.654;2023-05-07T03:20:51;18.33;;;11.57;;
26335;SDS011;14047;50.936;4.654;2023-05-07T03:23:17;17.88;;;12.65;;
26335;SDS011;14047;50.936;4.654;2023-05-07T03:25:43;17.13;;;12.15;;
26335;SDS011;14047;50.936;4.654;2023-05-07T03:28:09;27.23;;;11.40;;
26335;SDS011;14047;50.936;4.654;2023-05-07T03:30:44;15.98;;;11.35;;
26335;SDS011;14047;50.936;4.654;2023-05-07T03:33:10;14.10;;;11.23;;
26335;SDS011;14047;50.936;4.654;2023-05-07T03:35:37;30.75;;;12.50;;
26335;SDS011;14047;50.936;4.654;2023-05-07T03:38:03;16.10;;;12.20;;
26335;SDS011;14047;50.936;4.654;2023-05-07T03:40:32;16.98;;;10.88;;
26335;SDS011;14047;50.936;4.654;2023-05-07T03:42:59;16.48;;;10.52;;
26335;SDS011;14047;50.936;4.654;2023-05-07T03:45:27;15.73;;;10.38;;
26335;SDS011;14047;50.936;4.654;2023-05-07T03:48:16;15.93;;;11.35;;
26335;SDS011;14047;50.936;4.654;2023-05-07T03:50:42;17.95;;;12.07;;
26335;SDS011;14047;50.936;4.654;2023-05-07T03:53:09;15.60;;;11.75;;
26335;SDS011;14047;50.936;4.654;2023-05-07T03:55:38;15.80;;;11.70;;
26335;SDS011;14047;50.936;4.654;2023-05-07T03:58:04;18.83;;;11.15;;
26335;SDS011;14047;50.936;4.654;2023-05-07T04:00:30;16.80;;;11.88;;
26335;SDS011;14047;50.936;4.654;2023-05-07T04:02:59;16.63;;;12.52;;
26335;SDS011;14047;50.936;4.654;2023-05-07T04:05:28;16.90;;;11.23;;
26335;SDS011;14047;50.936;4.654;2023-05-07T04:07:59;16.55;;;12.90;;
26335;SDS011;14047;50.936;4.654;2023-05-07T04:10:31;18.60;;;12.55;;
26335;SDS011;14047;50.936;4.654;2023-05-07T04:13:01;15.30;;;11.02;;
26335;SDS011;14047;50.936;4.654;2023-05-07T04:15:27;14.73;;;11.40;;
26335;SDS011;14047;50.936;4.654;2023-05-07T04:17:54;16.30;;;11.50;;
26335;SDS011;14047;50.936;4.654;2023-05-07T04:20:21;15.45;;;11.25;;
26335;SDS011;14047;50.936;4.654;2023-05-07T04:22:54;18.90;;;11.82;;
26335;SDS011;14047;50.936;4.654;2023-05-07T04:25:21;14.75;;;11.20;;
26335;SDS011;14047;50.936;4.654;2023-05-07T04:27:47;17.13;;;11.50;;
26335;SDS011;14047;50.936;4.654;2023-05-07T04:30:15;14.15;;;11.27;;
26335;SDS011;14047;50.936;4.654;2023-05-07T04:32:42;16.63;;;11.85;;
26335;SDS011;14047;50.936;4.654;2023-05-07T04:35:10;13.02;;;11.05;;
26335;SDS011;14047;50.936;4.654;2023-05-07T04:37:37;19.20;;;12.07;;
26335;SDS011;14047;50.936;4.654;2023-05-07T04:40:04;23.88;;;13.45;;
26335;SDS011;14047;50.936;4.654;2023-05-07T04:42:31;17.90;;;12.20;;
26335;SDS011;14047;50.936;4.654;2023-05-07T04:44:58;19.67;;;12.15;;
26335;SDS011;14047;50.936;4.654;2023-05-07T04:47:24;16.75;;;11.93;;
26335;SDS011;14047;50.936;4.654;2023-05-07T04:49:50;15.00;;;12.05;;
26335;SDS011;14047;50.936;4.654;2023-05-07T04:52:16;16.30;;;12.38;;
26335;SDS011;14047;50.936;4.654;2023-05-07T04:54:42;22.63;;;12.45;;
26335;SDS011;14047;50.936;4.654;2023-05-07T04:57:08;15.95;;;12.63;;
26335;SDS011;14047;50.936;4.654;2023-05-07T04:59:34;16.52;;;12.50;;
26335;SDS011;14047;50.936;4.654;2023-05-07T05:02:00;21.73;;;13.80;;
26335;SDS011;14047;50.936;4.654;2023-05-07T05:04:27;17.33;;;13.32;;
26335;SDS011;14047;50.936;4.654;2023-05-07T05:06:53;15.32;;;12.25;;
26335;SDS011;14047;50.936;4.654;2023-05-07T05:09:19;16.02;;;11.40;;
26335;SDS011;14047;50.936;4.654;2023-05-07T05:11:45;16.00;;;12.35;;
26335;SDS011;14047;50.936;4.654;2023-05-07T05:14:11;16.50;;;11.52;;
26335;SDS011;14047;50.936;4.654;2023-05-07T05:16:37;15.68;;;12.10;;
26335;SDS011;14047;50.936;4.654;2023-05-07T05:19:03;20.38;;;12.90;;
26335;SDS011;14047;50.936;4.654;2023-05-07T05:21:31;16.02;;;12.23;;
26335;SDS011;14047;50.936;4.654;2023-05-07T05:24:03;15.20;;;11.93;;
26335;SDS011;14047;50.936;4.654;2023-05-07T05:26:30;15.70;;;12.35;;
26335;SDS011;14047;50.936;4.654;2023-05-07T05:28:56;18.65;;;11.98;;
26335;SDS011;14047;50.936;4.654;2023-05-07T05:31:24;18.02;;;12.13;;
26335;SDS011;14047;50.936;4.654;2023-05-07T05:33:50;17.10;;;11.52;;
26335;SDS011;14047;50.936;4.654;2023-05-07T05:36:17;15.80;;;11.82;;
26335;SDS011;14047;50.936;4.654;2023-05-07T05:38:44;16.35;;;11.68;;
26335;SDS011;14047;50.936;4.654;2023-05-07T05:41:12;14.43;;;11.48;;
26335;SDS011;14047;50.936;4.654;2023-05-07T05:43:38;19.60;;;12.10;;
26335;SDS011;14047;50.936;4.654;2023-05-07T05:46:04;19.33;;;13.00;;
26335;SDS011;14047;50.936;4.654;2023-05-07T05:48:30;13.35;;;11.23;;
26335;SDS011;14047;50.936;4.654;2023-05-07T05:50:58;16.00;;;12.07;;
26335;SDS011;14047;50.936;4.654;2023-05-07T05:53:24;20.73;;;12.40;;
26335;SDS011;14047;50.936;4.654;2023-05-07T05:55:50;15.40;;;11.88;;
26335;SDS011;14047;50.936;4.654;2023-05-07T05:58:17;16.20;;;12.27;;
26335;SDS011;14047;50.936;4.654;2023-05-07T06:00:49;16.50;;;12.63;;
26335;SDS011;14047;50.936;4.654;2023-05-07T06:03:19;15.95;;;12.38;;
26335;SDS011;14047;50.936;4.654;2023-05-07T06:05:45;19.70;;;13.98;;
26335;SDS011;14047;50.936;4.654;2023-05-07T06:08:11;16.88;;;12.05;;
26335;SDS011;14047;50.936;4.654;2023-05-07T06:10:38;18.27;;;12.55;;
26335;SDS011;14047;50.936;4.654;2023-05-07T06:13:06;16.02;;;13.05;;
26335;SDS011;14047;50.936;4.654;2023-05-07T06:15:33;15.90;;;12.63;;
26335;SDS011;14047;50.936;4.654;2023-05-07T06:18:04;18.42;;;12.45;;
26335;SDS011;14047;50.936;4.654;2023-05-07T06:20:30;14.93;;;12.20;;
26335;SDS011;14047;50.936;4.654;2023-05-07T06:22:57;14.80;;;11.82;;
26335;SDS011;14047;50.936;4.654;2023-05-07T06:25:24;15.05;;;11.38;;
26335;SDS011;14047;50.936;4.654;2023-05-07T06:27:50;17.83;;;10.98;;
26335;SDS011;14047;50.936;4.654;2023-05-07T06:30:15;13.38;;;10.55;;
26335;SDS011;14047;50.936;4.654;2023-05-07T06:32:42;15.82;;;10.60;;
26335;SDS011;14047;50.936;4.654;2023-05-07T06:35:09;17.20;;;10.18;;
26335;SDS011;14047;50.936;4.654;2023-05-07T06:37:36;13.38;;;9.18;;
26335;SDS011;14047;50.936;4.654;2023-05-07T06:40:05;18.83;;;11.20;;
26335;SDS011;14047;50.936;4.654;2023-05-07T06:42:35;16.60;;;12.20;;
26335;SDS011;14047;50.936;4.654;2023-05-07T06:45:19;17.08;;;11.98;;
26335;SDS011;14047;50.936;4.654;2023-05-07T06:47:45;18.20;;;11.80;;
26335;SDS011;14047;50.936;4.654;2023-05-07T06:50:11;14.88;;;11.95;;
26335;SDS011;14047;50.936;4.654;2023-05-07T06:52:37;18.52;;;11.50;;
26335;SDS011;14047;50.936;4.654;2023-05-07T06:55:05;16.20;;;12.10;;
26335;SDS011;14047;50.936;4.654;2023-05-07T06:57:31;16.33;;;10.48;;
26335;SDS011;14047;50.936;4.654;2023-05-07T06:59:57;18.35;;;9.95;;
26335;SDS011;14047;50.936;4.654;2023-05-07T07:02:23;16.42;;;10.13;;
26335;SDS011;14047;50.936;4.654;2023-05-07T07:04:49;15.27;;;8.52;;
26335;SDS011;14047;50.936;4.654;2023-05-07T07:07:15;13.30;;;7.68;;
26335;SDS011;14047;50.936;4.654;2023-05-07T07:09:44;16.45;;;8.20;;
26335;SDS011;14047;50.936;4.654;2023-05-07T07:12:12;15.27;;;7.50;;
26335;SDS011;14047;50.936;4.654;2023-05-07T07:14:39;14.57;;;7.03;;
26335;SDS011;14047;50.936;4.654;2023-05-07T07:17:05;16.08;;;6.63;;
26335;SDS011;14047;50.936;4.654;2023-05-07T07:19:32;12.27;;;7.15;;
26335;SDS011;14047;50.936;4.654;2023-05-07T07:21:59;17.80;;;7.38;;
26335;SDS011;14047;50.936;4.654;2023-05-07T07:24:25;19.08;;;7.63;;
26335;SDS011;14047;50.936;4.654;2023-05-07T07:26:55;9.85;;;6.50;;
26335;SDS011;14047;50.936;4.654;2023-05-07T07:29:22;8.07;;;5.88;;
26335;SDS011;14047;50.936;4.654;2023-05-07T07:31:50;13.68;;;6.65;;
26335;SDS011;14047;50.936;4.654;2023-05-07T07:34:18;13.00;;;6.47;;
26335;SDS011;14047;50.936;4.654;2023-05-07T07:36:44;14.18;;;5.47;;
26335;SDS011;14047;50.936;4.654;2023-05-07T07:39:10;14.50;;;7.43;;
26335;SDS011;14047;50.936;4.654;2023-05-07T07:41:36;11.43;;;6.07;;
26335;SDS011;14047;50.936;4.654;2023-05-07T07:44:03;11.20;;;5.75;;
26335;SDS011;14047;50.936;4.654;2023-05-07T07:46:33;11.88;;;5.72;;
26335;SDS011;14047;50.936;4.654;2023-05-07T07:49:00;11.15;;;5.35;;
26335;SDS011;14047;50.936;4.654;2023-05-07T07:51:26;12.85;;;5.97;;
26335;SDS011;14047;50.936;4.654;2023-05-07T07:53:52;14.95;;;6.13;;
26335;SDS011;14047;50.936;4.654;2023-05-07T07:56:18;13.55;;;6.07;;
26335;SDS011;14047;50.936;4.654;2023-05-07T07:58:45;10.90;;;5.60;;
26335;SDS011;14047;50.936;4.654;2023-05-07T08:01:11;14.35;;;6.35;;
26335;SDS011;14047;50.936;4.654;2023-05-07T08:03:39;16.58;;;5.35;;
26335;SDS011;14047;50.936;4.654;2023-05-07T08:06:05;13.75;;;5.20;;
26335;SDS011;14047;50.936;4.654;2023-05-07T08:08:33;14.13;;;5.78;;
26335;SDS011;14047;50.936;4.654;2023-05-07T08:11:00;13.80;;;5.72;;
26335;SDS011;14047;50.936;4.654;2023-05-07T08:13:30;16.75;;;6.38;;
26335;SDS011;14047;50.936;4.654;2023-05-07T08:15:57;12.60;;;6.60;;
26335;SDS011;14047;50.936;4.654;2023-05-07T08:18:23;13.15;;;5.97;;
26335;SDS011;14047;50.936;4.654;2023-05-07T08:20:51;14.38;;;5.85;;
26335;SDS011;14047;50.936;4.654;2023-05-07T08:23:20;13.05;;;6.75;;
26335;SDS011;14047;50.936;4.654;2023-05-07T08:25:47;14.73;;;6.38;;
26335;SDS011;14047;50.936;4.654;2023-05-07T08:28:15;17.55;;;6.15;;
26335;SDS011;14047;50.936;4.654;2023-05-07T08:30:40;15.20;;;6.07;;
26335;SDS011;14047;50.936;4.654;2023-05-07T08:33:08;15.80;;;6.40;;
26335;SDS011;14047;50.936;4.654;2023-05-07T08:35:34;17.05;;;6.35;;
26335;SDS011;14047;50.936;4.654;2023-05-07T08:38:01;13.15;;;5.78;;
26335;SDS011;14047;50.936;4.654;2023-05-07T08:40:29;19.02;;;6.53;;
26335;SDS011;14047;50.936;4.654;2023-05-07T08:43:02;13.20;;;6.03;;
26335;SDS011;14047;50.936;4.654;2023-05-07T08:45:30;16.42;;;5.70;;
26335;SDS011;14047;50.936;4.654;2023-05-07T08:47:59;10.75;;;6.00;;
26335;SDS011;14047;50.936;4.654;2023-05-07T08:50:35;16.15;;;6.45;;
26335;SDS011;14047;50.936;4.654;2023-05-07T08:53:05;15.18;;;5.68;;
26335;SDS011;14047;50.936;4.654;2023-05-07T08:55:31;15.07;;;5.60;;
26335;SDS011;14047;50.936;4.654;2023-05-07T08:57:59;12.52;;;5.80;;
26335;SDS011;14047;50.936;4.654;2023-05-07T09:00:25;15.88;;;6.45;;
26335;SDS011;14047;50.936;4.654;2023-05-07T09:02:53;18.23;;;6.63;;
26335;SDS011;14047;50.936;4.654;2023-05-07T09:05:20;13.68;;;5.97;;
26335;SDS011;14047;50.936;4.654;2023-05-07T09:07:46;12.77;;;5.63;;
26335;SDS011;14047;50.936;4.654;2023-05-07T09:10:13;16.08;;;6.40;;
26335;SDS011;14047;50.936;4.654;2023-05-07T09:12:41;18.55;;;6.20;;
26335;SDS011;14047;50.936;4.654;2023-05-07T09:15:09;13.02;;;5.70;;
26335;SDS011;14047;50.936;4.654;2023-05-07T09:17:35;15.05;;;6.65;;
26335;SDS011;14047;50.936;4.654;2023-05-07T09:20:02;15.85;;;6.22;;
26335;SDS011;14047;50.936;4.654;2023-05-07T09:22:34;16.35;;;5.57;;
26335;SDS011;14047;50.936;4.654;2023-05-07T09:25:06;13.35;;;5.75;;
26335;SDS011;14047;50.936;4.654;2023-05-07T09:27:32;10.23;;;4.95;;
26335;SDS011;14047;50.936;4.654;2023-05-07T09:29:59;15.88;;;5.22;;
26335;SDS011;14047;50.936;4.654;2023-05-07T09:32:28;14.40;;;6.40;;
26335;SDS011;14047;50.936;4.654;2023-05-07T09:34:56;17.23;;;5.35;;
26335;SDS011;14047;50.936;4.654;2023-05-07T09:37:23;13.15;;;5.25;;
26335;SDS011;14047;50.936;4.654;2023-05-07T09:39:52;12.13;;;4.90;;
26335;SDS011;14047;50.936;4.654;2023-05-07T09:42:24;11.10;;;5.25;;
26335;SDS011;14047;50.936;4.654;2023-05-07T09:44:55;11.13;;;4.93;;
26335;SDS011;14047;50.936;4.654;2023-05-07T09:47:24;11.02;;;4.75;;
26335;SDS011;14047;50.936;4.654;2023-05-07T09:49:55;13.20;;;4.50;;
26335;SDS011;14047;50.936;4.654;2023-05-07T09:52:23;7.63;;;4.70;;
26335;SDS011;14047;50.936;4.654;2023-05-07T09:54:54;9.38;;;4.93;;
26335;SDS011;14047;50.936;4.654;2023-05-07T09:57:26;8.90;;;4.60;;
26335;SDS011;14047;50.936;4.654;2023-05-07T09:59:58;51.67;;;5.95;;
26335;SDS011;14047;50.936;4.654;2023-05-07T10:02:30;10.23;;;3.95;;
26335;SDS011;14047;50.936;4.654;2023-05-07T10:04:59;12.20;;;3.88;;
26335;SDS011;14047;50.936;4.654;2023-05-07T10:07:30;7.35;;;3.50;;
26335;SDS011;14047;50.936;4.654;2023-05-07T10:10:01;6.07;;;2.75;;
26335;SDS011;14047;50.936;4.654;2023-05-07T10:12:34;9.05;;;2.90;;
26335;SDS011;14047;50.936;4.654;2023-05-07T10:15:09;6.80;;;3.05;;
26335;SDS011;14047;50.936;4.654;2023-05-07T10:17:39;12.30;;;3.63;;
26335;SDS011;14047;50.936;4.654;2023-05-07T10:20:07;8.20;;;3.92;;
26335;SDS011;14047;50.936;4.654;2023-05-07T10:22:37;8.88;;;4.45;;
26335;SDS011;14047;50.936;4.654;2023-05-07T10:25:06;11.07;;;4.40;;
26335;SDS011;14047;50.936;4.654;2023-05-07T10:27:46;9.30;;;4.45;;
26335;SDS011;14047;50.936;4.654;2023-05-07T10:30:22;14.93;;;5.85;;
26335;SDS011;14047;50.936;4.654;2023-05-07T10:33:01;13.02;;;5.93;;
26335;SDS011;14047;50.936;4.654;2023-05-07T10:35:38;10.63;;;5.07;;
26335;SDS011;14047;50.936;4.654;2023-05-07T10:38:08;7.38;;;3.97;;
26335;SDS011;14047;50.936;4.654;2023-05-07T10:40:36;6.55;;;2.97;;
26335;SDS011;14047;50.936;4.654;2023-05-07T10:43:04;8.10;;;3.38;;
26335;SDS011;14047;50.936;4.654;2023-05-07T10:45:37;7.60;;;3.35;;
26335;SDS011;14047;50.936;4.654;2023-05-07T10:48:14;8.73;;;2.95;;
26335;SDS011;14047;50.936;4.654;2023-05-07T10:50:43;8.00;;;2.40;;
26335;SDS011;14047;50.936;4.654;2023-05-07T10:55:46;8.68;;;2.90;;
26335;SDS011;14047;50.936;4.654;2023-05-07T11:00:55;7.95;;;3.00;;
26335;SDS011;14047;50.936;4.654;2023-05-07T11:03:27;8.68;;;3.47;;
26335;SDS011;14047;50.936;4.654;2023-05-07T11:06:12;7.22;;;3.55;;
26335;SDS011;14047;50.936;4.654;2023-05-07T11:08:56;9.13;;;3.45;;
26335;SDS011;14047;50.936;4.654;2023-05-07T11:11:49;8.25;;;3.95;;
26335;SDS011;14047;50.936;4.654;2023-05-07T11:14:43;12.57;;;4.47;;
26335;SDS011;14047;50.936;4.654;2023-05-07T11:17:25;9.35;;;4.03;;
26335;SDS011;14047;50.936;4.654;2023-05-07T11:19:58;9.18;;;4.80;;
26335;SDS011;14047;50.936;4.654;2023-05-07T11:22:42;8.43;;;3.88;;
26335;SDS011;14047;50.936;4.654;2023-05-07T11:25:25;10.27;;;4.18;;
26335;SDS011;14047;50.936;4.654;2023-05-07T11:28:04;6.47;;;4.10;;
26335;SDS011;14047;50.936;4.654;2023-05-07T11:30:32;7.97;;;3.92;;
26335;SDS011;14047;50.936;4.654;2023-05-07T11:32:59;5.97;;;3.10;;
26335;SDS011;14047;50.936;4.654;2023-05-07T11:35:25;8.55;;;3.40;;
26335;SDS011;14047;50.936;4.654;2023-05-07T11:37:57;7.63;;;3.90;;
26335;SDS011;14047;50.936;4.654;2023-05-07T11:40:25;6.97;;;3.90;;
26335;SDS011;14047;50.936;4.654;2023-05-07T11:42:50;6.60;;;3.50;;
26335;SDS011;14047;50.936;4.654;2023-05-07T11:45:22;6.57;;;3.20;;
26335;SDS011;14047;50.936;4.654;2023-05-07T11:47:53;9.57;;;3.00;;
26335;SDS011;14047;50.936;4.654;2023-05-07T11:50:19;8.88;;;3.42;;
26335;SDS011;14047;50.936;4.654;2023-05-07T11:52:52;4.85;;;2.92;;
26335;SDS011;14047;50.936;4.654;2023-05-07T11:55:18;4.95;;;2.78;;
26335;SDS011;14047;50.936;4.654;2023-05-07T11:57:44;7.20;;;3.08;;
26335;SDS011;14047;50.936;4.654;2023-05-07T12:00:10;8.45;;;3.17;;
26335;SDS011;14047;50.936;4.654;2023-05-07T12:02:39;5.93;;;2.22;;
26335;SDS011;14047;50.936;4.654;2023-05-07T12:05:07;5.82;;;1.33;;
26335;SDS011;14047;50.936;4.654;2023-05-07T12:07:33;6.20;;;4.82;;
26335;SDS011;14047;50.936;4.654;2023-05-07T12:10:03;13.73;;;8.23;;
26335;SDS011;14047;50.936;4.654;2023-05-07T12:12:39;8.32;;;3.38;;
26335;SDS011;14047;50.936;4.654;2023-05-07T12:15:07;7.97;;;2.22;;
26335;SDS011;14047;50.936;4.654;2023-05-07T12:17:33;6.43;;;2.20;;
26335;SDS011;14047;50.936;4.654;2023-05-07T12:20:00;8.65;;;2.53;;
26335;SDS011;14047;50.936;4.654;2023-05-07T12:22:26;5.28;;;2.13;;
26335;SDS011;14047;50.936;4.654;2023-05-07T12:24:58;6.97;;;1.80;;
26335;SDS011;14047;50.936;4.654;2023-05-07T12:27:25;5.85;;;2.17;;
26335;SDS011;14047;50.936;4.654;2023-05-07T12:29:51;7.43;;;1.33;;
26335;SDS011;14047;50.936;4.654;2023-05-07T12:32:17;3.97;;;1.20;;
26335;SDS011;14047;50.936;4.654;2023-05-07T12:34:45;3.15;;;1.50;;
26335;SDS011;14047;50.936;4.654;2023-05-07T12:37:11;6.13;;;1.58;;
26335;SDS011;14047;50.936;4.654;2023-05-07T12:39:38;4.25;;;1.80;;
26335;SDS011;14047;50.936;4.654;2023-05-07T12:42:10;6.95;;;1.42;;
26335;SDS011;14047;50.936;4.654;2023-05-07T12:44:51;4.30;;;1.70;;
26335;SDS011;14047;50.936;4.654;2023-05-07T12:47:17;4.45;;;1.60;;
26335;SDS011;14047;50.936;4.654;2023-05-07T12:49:43;6.30;;;1.55;;
26335;SDS011;14047;50.936;4.654;2023-05-07T12:52:11;6.28;;;1.55;;
26335;SDS011;14047;50.936;4.654;2023-05-07T12:54:37;5.88;;;1.58;;
26335;SDS011;14047;50.936;4.654;2023-05-07T12:57:08;5.68;;;1.80;;
26335;SDS011;14047;50.936;4.654;2023-05-07T12:59:41;5.20;;;1.67;;
26335;SDS011;14047;50.936;4.654;2023-05-07T13:02:08;3.03;;;1.30;;
26335;SDS011;14047;50.936;4.654;2023-05-07T13:04:36;4.53;;;1.52;;
26335;SDS011;14047;50.936;4.654;2023-05-07T13:07:02;6.45;;;1.73;;
26335;SDS011;14047;50.936;4.654;2023-05-07T13:09:28;4.10;;;1.90;;
26335;SDS011;14047;50.936;4.654;2023-05-07T13:11:54;2.88;;;1.55;;
26335;SDS011;14047;50.936;4.654;2023-05-07T13:14:21;2.70;;;1.20;;
26335;SDS011;14047;50.936;4.654;2023-05-07T13:16:47;4.03;;;1.45;;
26335;SDS011;14047;50.936;4.654;2023-05-07T13:19:13;7.22;;;1.50;;
26335;SDS011;14047;50.936;4.654;2023-05-07T13:21:39;4.38;;;1.70;;
26335;SDS011;14047;50.936;4.654;2023-05-07T13:24:05;4.10;;;1.83;;
26335;SDS011;14047;50.936;4.654;2023-05-07T13:26:31;6.40;;;1.67;;
26335;SDS011;14047;50.936;4.654;2023-05-07T13:28:57;6.40;;;1.63;;
26335;SDS011;14047;50.936;4.654;2023-05-07T13:31:24;3.78;;;1.73;;
26335;SDS011;14047;50.936;4.654;2023-05-07T13:33:50;5.00;;;1.70;;
26335;SDS011;14047;50.936;4.654;2023-05-07T13:36:16;7.68;;;1.70;;
26335;SDS011;14047;50.936;4.654;2023-05-07T13:38:42;2.92;;;1.50;;
26335;SDS011;14047;50.936;4.654;2023-05-07T13:41:08;5.75;;;1.90;;
26335;SDS011;14047;50.936;4.654;2023-05-07T13:43:34;6.85;;;4.00;;
26335;SDS011;14047;50.936;4.654;2023-05-07T13:46:00;6.00;;;1.75;;
26335;SDS011;14047;50.936;4.654;2023-05-07T13:48:26;3.85;;;1.60;;
26335;SDS011;14047;50.936;4.654;2023-05-07T13:50:53;6.60;;;2.13;;
26335;SDS011;14047;50.936;4.654;2023-05-07T13:53:19;3.85;;;1.60;;
26335;SDS011;14047;50.936;4.654;2023-05-07T13:55:45;5.95;;;1.98;;
26335;SDS011;14047;50.936;4.654;2023-05-07T13:58:11;3.85;;;1.58;;
26335;SDS011;14047;50.936;4.654;2023-05-07T14:00:37;4.38;;;1.52;;
26335;SDS011;14047;50.936;4.654;2023-05-07T14:03:04;4.70;;;1.77;;
26335;SDS011;14047;50.936;4.654;2023-05-07T14:05:30;4.10;;;1.70;;
26335;SDS011;14047;50.936;4.654;2023-05-07T14:07:57;5.20;;;2.00;;
26335;SDS011;14047;50.936;4.654;2023-05-07T14:10:23;5.47;;;1.50;;
26335;SDS011;14047;50.936;4.654;2023-05-07T14:12:49;4.43;;;1.88;;
26335;SDS011;14047;50.936;4.654;2023-05-07T14:15:15;5.90;;;2.10;;
26335;SDS011;14047;50.936;4.654;2023-05-07T14:17:44;5.13;;;1.95;;
26335;SDS011;14047;50.936;4.654;2023-05-07T14:20:11;4.50;;;1.95;;
26335;SDS011;14047;50.936;4.654;2023-05-07T14:22:37;4.43;;;1.95;;
26335;SDS011;14047;50.936;4.654;2023-05-07T14:25:03;4.63;;;2.20;;
26335;SDS011;14047;50.936;4.654;2023-05-07T14:27:29;5.72;;;2.15;;
26335;SDS011;14047;50.936;4.654;2023-05-07T14:29:55;6.38;;;2.40;;
26335;SDS011;14047;50.936;4.654;2023-05-07T14:32:21;3.83;;;1.80;;
26335;SDS011;14047;50.936;4.654;2023-05-07T14:34:47;6.07;;;2.55;;
26335;SDS011;14047;50.936;4.654;2023-05-07T14:37:15;3.78;;;2.08;;
26335;SDS011;14047;50.936;4.654;2023-05-07T14:39:40;4.88;;;1.98;;
26335;SDS011;14047;50.936;4.654;2023-05-07T14:42:06;5.70;;;2.08;;
26335;SDS011;14047;50.936;4.654;2023-05-07T14:44:36;4.00;;;1.85;;